createdAt,value
2023-05-09T00:00:58.118Z,10.875
2023-05-09T00:03:57.267Z,10.875
2023-05-09T00:06:56.798Z,10.875
2023-05-09T00:09:57.697Z,10.75
2023-05-09T00:12:57.148Z,10.812
2023-05-09T00:15:57.701Z,10.812
2023-05-09T00:18:56.854Z,10.875
2023-05-09T00:21:57.063Z,10.875
2023-05-09T00:24:57.210Z,10.687
2023-05-09T00:27:57.042Z,10.75
2023-05-09T00:30:57.512Z,10.75
2023-05-09T00:33:57.457Z,10.937
2023-05-09T00:37:01.349Z,11.187
2023-05-09T00:39:57.057Z,11.25
2023-05-09T00:42:57.577Z,11.25
2023-05-09T00:45:57.224Z,11.187
2023-05-09T00:48:56.886Z,11.187
2023-05-09T00:51:56.976Z,11.187
2023-05-09T00:54:57.948Z,11.25
2023-05-09T00:57:57.554Z,11.25
2023-05-09T01:00:58.189Z,11.25
2023-05-09T01:03:57.203Z,11.0
2023-05-09T01:06:57.923Z,11.125
2023-05-09T01:09:57.261Z,11.062
2023-05-09T01:12:57.566Z,11.0
2023-05-09T01:15:57.305Z,11.0
2023-05-09T01:18:57.957Z,11.062
2023-05-09T01:21:57.288Z,11.062
2023-05-09T01:24:56.810Z,11.0
2023-05-09T01:27:57.596Z,10.812
2023-05-09T01:30:57.624Z,10.75
2023-05-09T01:33:57.201Z,10.75
2023-05-09T01:36:57.210Z,10.562
2023-05-09T01:39:57.831Z,10.625
2023-05-09T01:42:56.666Z,10.625
2023-05-09T01:45:57.653Z,10.625
2023-05-09T01:48:57.271Z,10.562
2023-05-09T01:51:57.480Z,10.625
2023-05-09T01:54:57.154Z,10.625
2023-05-09T01:57:57.461Z,10.562
2023-05-09T02:00:57.623Z,10.562
2023-05-09T02:03:57.224Z,10.312
2023-05-09T02:06:57.431Z,10.375
2023-05-09T02:09:57.154Z,10.5
2023-05-09T02:12:56.809Z,10.437
2023-05-09T02:15:57.091Z,10.5
2023-05-09T02:18:58.249Z,10.5
2023-05-09T02:21:57.147Z,10.187
2023-05-09T02:24:57.206Z,10.187
2023-05-09T02:27:57.022Z,10.187
2023-05-09T02:30:57.282Z,10.375
2023-05-09T02:33:58.061Z,10.062
2023-05-09T02:36:57.180Z,10.062
2023-05-09T02:39:57.948Z,10.062
2023-05-09T02:42:56.959Z,10.125
2023-05-09T02:45:57.666Z,10.125
2023-05-09T02:48:57.886Z,10.062
2023-05-09T02:51:57.208Z,10.0
2023-05-09T02:54:57.799Z,10.187
2023-05-09T02:58:09.700Z,10.062
2023-05-09T03:00:57.737Z,10.25
2023-05-09T03:03:57.029Z,10.312
2023-05-09T03:06:56.658Z,10.375
2023-05-09T03:09:57.568Z,10.187
2023-05-09T03:12:57.604Z,10.25
2023-05-09T03:15:57.369Z,10.25
2023-05-09T03:18:57.090Z,10.25
2023-05-09T03:21:57.332Z,10.437
2023-05-09T03:24:57.031Z,10.375
2023-05-09T03:27:57.327Z,10.375
2023-05-09T03:30:57.188Z,10.375
2023-05-09T03:33:58.065Z,10.437
2023-05-09T03:36:56.828Z,10.312
2023-05-09T03:39:57.084Z,10.25
2023-05-09T03:42:57.416Z,10.187
2023-05-09T03:45:57.351Z,10.25
2023-05-09T03:48:57.876Z,10.375
2023-05-09T03:51:56.935Z,10.312
2023-05-09T03:54:56.953Z,10.312
2023-05-09T03:57:57.314Z,10.187
2023-05-09T04:00:57.783Z,10.125
2023-05-09T04:03:57.168Z,9.937
2023-05-09T04:06:57.623Z,9.875
2023-05-09T04:09:57.661Z,9.937
2023-05-09T04:12:57.273Z,9.937
2023-05-09T04:15:57.358Z,10.0
2023-05-09T04:18:56.717Z,9.937
2023-05-09T04:21:56.728Z,9.875
2023-05-09T04:24:56.794Z,9.937
2023-05-09T04:27:57.367Z,10.0
2023-05-09T04:30:57.545Z,9.875
2023-05-09T04:33:57.457Z,9.812
2023-05-09T04:36:57.422Z,10.0
2023-05-09T04:39:57.333Z,9.937
2023-05-09T04:42:57.346Z,9.937
2023-05-09T04:45:57.436Z,10.062
2023-05-09T04:48:57.585Z,10.062
2023-05-09T04:51:57.888Z,10.375
2023-05-09T04:54:57.892Z,10.437
2023-05-09T04:57:57.841Z,10.5
2023-05-09T05:00:58.057Z,10.5
2023-05-09T05:03:57.928Z,10.5
2023-05-09T05:06:56.973Z,10.5
2023-05-09T05:09:58.253Z,10.437
2023-05-09T05:12:57.760Z,10.437
2023-05-09T05:15:57.804Z,10.687
2023-05-09T05:18:57.846Z,10.687
2023-05-09T05:21:58.053Z,10.687
2023-05-09T05:24:58.072Z,10.812
2023-05-09T05:27:57.599Z,10.812
2023-05-09T05:30:57.687Z,10.812
2023-05-09T05:33:57.832Z,10.812
2023-05-09T05:36:57.576Z,10.75
2023-05-09T05:39:57.375Z,10.687
2023-05-09T05:42:57.355Z,10.687
2023-05-09T05:45:57.839Z,10.625
2023-05-09T05:48:57.746Z,10.625
2023-05-09T05:51:57.724Z,10.562
2023-05-09T05:54:57.548Z,10.5
2023-05-09T05:57:57.807Z,10.5
2023-05-09T06:00:58.503Z,10.5
2023-05-09T06:03:57.366Z,10.312
2023-05-09T06:06:58.002Z,10.312
2023-05-09T06:09:57.991Z,10.312
2023-05-09T06:12:58.233Z,10.25
2023-05-09T06:16:01.908Z,10.25
2023-05-09T06:18:57.787Z,10.875
2023-05-09T06:21:57.583Z,11.375
2023-05-09T06:24:57.542Z,11.375
2023-05-09T06:27:58.035Z,12.0
2023-05-09T06:30:57.373Z,12.375
2023-05-09T06:33:57.369Z,12.437
2023-05-09T06:36:57.474Z,12.625
2023-05-09T06:39:57.545Z,12.0
2023-05-09T06:42:57.600Z,11.937
2023-05-09T06:45:57.742Z,11.625
2023-05-09T06:48:57.474Z,12.562
2023-05-09T06:51:57.226Z,12.312
2023-05-09T06:54:57.671Z,12.937
2023-05-09T06:57:57.303Z,13.625
2023-05-09T07:00:57.777Z,13.687
2023-05-09T07:03:57.440Z,13.75
2023-05-09T07:06:57.550Z,13.687
2023-05-09T07:12:57.653Z,13.625
2023-05-09T07:15:57.252Z,14.125
2023-05-09T07:18:57.053Z,14.187
2023-05-09T07:21:56.882Z,14.25
2023-05-09T07:24:56.728Z,14.875
2023-05-09T07:27:57.914Z,14.937
2023-05-09T07:30:57.180Z,14.687
2023-05-09T07:33:57.481Z,15.375
2023-05-09T07:36:57.952Z,15.75
2023-05-09T07:39:57.228Z,15.562
2023-05-09T07:42:56.986Z,15.687
2023-05-09T07:45:56.883Z,15.625
2023-05-09T07:48:56.935Z,15.937
2023-05-09T07:51:57.735Z,15.875
2023-05-09T07:54:57.666Z,15.75
2023-05-09T07:57:57.772Z,16.125
2023-05-09T08:00:57.680Z,15.937
2023-05-09T08:03:57.397Z,16.25
2023-05-09T08:06:56.998Z,16.375
2023-05-09T08:09:57.382Z,16.312
2023-05-09T08:12:57.294Z,16.625
2023-05-09T08:15:58.175Z,16.125
2023-05-09T08:18:58.075Z,16.125
2023-05-09T08:21:57.420Z,16.125
2023-05-09T08:24:57.431Z,16.5
2023-05-09T08:27:57.473Z,16.562
2023-05-09T08:30:57.115Z,16.875
2023-05-09T08:33:58.018Z,16.687
2023-05-09T08:36:56.992Z,16.687
2023-05-09T08:39:57.230Z,16.812
2023-05-09T08:42:57.033Z,16.812
2023-05-09T08:45:57.363Z,17.0
2023-05-09T08:48:57.282Z,17.75
2023-05-09T08:51:57.731Z,17.562
2023-05-09T08:54:56.835Z,16.562
2023-05-09T08:57:56.980Z,17.0
2023-05-09T09:00:57.615Z,17.062
2023-05-09T09:03:57.158Z,16.875
2023-05-09T09:06:57.397Z,16.875
2023-05-09T09:09:57.987Z,17.187
2023-05-09T09:12:56.652Z,17.5
2023-05-09T09:15:57.493Z,18.0
2023-05-09T09:18:58.880Z,18.5
2023-05-09T09:21:57.078Z,18.937
2023-05-09T09:24:56.976Z,18.875
2023-05-09T09:27:57.399Z,18.875
2023-05-09T09:30:57.247Z,18.625
2023-05-09T09:33:58.024Z,18.875
2023-05-09T09:36:57.741Z,18.562
2023-05-09T09:39:57.643Z,19.062
2023-05-09T09:42:57.558Z,20.062
2023-05-09T09:45:57.804Z,20.0
2023-05-09T09:48:56.954Z,19.375
2023-05-09T09:51:57.418Z,19.687
2023-05-09T09:54:56.971Z,20.687
2023-05-09T09:57:58.826Z,19.187
2023-05-09T10:00:57.793Z,19.562
2023-05-09T10:03:56.990Z,19.0
2023-05-09T10:06:57.486Z,18.75
2023-05-09T10:09:57.744Z,19.375
2023-05-09T10:12:57.636Z,19.375
2023-05-09T10:15:57.096Z,18.75
2023-05-09T10:18:56.793Z,18.75
2023-05-09T10:21:57.252Z,19.312
2023-05-09T10:24:57.824Z,19.562
2023-05-09T10:27:56.936Z,19.937
2023-05-09T10:30:57.566Z,19.625
2023-05-09T10:33:58.463Z,19.875
2023-05-09T10:36:57.052Z,19.562
2023-05-09T10:39:57.275Z,19.75
2023-05-09T10:42:57.217Z,19.687
2023-05-09T10:45:57.332Z,19.75
2023-05-09T10:48:57.517Z,19.75
2023-05-09T10:51:57.956Z,19.75
2023-05-09T10:54:57.495Z,20.312
2023-05-09T10:57:57.706Z,20.0
2023-05-09T11:00:57.825Z,19.875
2023-05-09T11:04:16.892Z,19.5
2023-05-09T11:06:57.894Z,19.437
2023-05-09T11:09:57.737Z,19.25
2023-05-09T11:12:58.387Z,19.437
2023-05-09T11:15:57.790Z,19.937
2023-05-09T11:18:56.887Z,19.875
2023-05-09T11:21:57.519Z,20.812
2023-05-09T11:24:57.645Z,19.875
2023-05-09T11:27:57.281Z,19.625
2023-05-09T11:30:57.680Z,19.625
2023-05-09T11:33:57.024Z,20.375
2023-05-09T11:36:57.318Z,20.375
2023-05-09T11:39:57.606Z,20.0
2023-05-09T11:42:58.862Z,20.0
2023-05-09T11:45:57.222Z,20.625
2023-05-09T11:48:56.980Z,20.562
2023-05-09T11:51:57.578Z,20.25
2023-05-09T11:54:57.314Z,20.25
2023-05-09T11:57:57.421Z,20.562
2023-05-09T12:00:57.981Z,21.0
2023-05-09T12:03:58.013Z,21.0
2023-05-09T12:06:57.135Z,20.75
2023-05-09T12:09:57.040Z,20.437
2023-05-09T12:12:57.473Z,20.437
2023-05-09T12:15:57.094Z,20.375
2023-05-09T12:18:57.029Z,20.125
2023-05-09T12:21:57.006Z,20.125
2023-05-09T12:24:57.580Z,20.75
2023-05-09T12:27:57.273Z,21.562
2023-05-09T12:30:57.149Z,21.0
2023-05-09T12:33:57.972Z,20.812
2023-05-09T12:36:57.398Z,20.5
2023-05-09T12:39:57.823Z,20.5
2023-05-09T12:42:57.561Z,20.375
2023-05-09T12:45:57.719Z,20.375
2023-05-09T12:48:56.809Z,20.375
2023-05-09T12:51:57.832Z,21.375
2023-05-09T12:54:56.794Z,21.375
2023-05-09T12:57:56.778Z,21.312
2023-05-09T13:00:58.397Z,21.125
2023-05-09T13:03:57.514Z,21.312
2023-05-09T13:06:57.564Z,20.75
2023-05-09T13:09:57.259Z,20.625
2023-05-09T13:12:57.851Z,20.937
2023-05-09T13:15:58.135Z,20.187
2023-05-09T13:18:57.816Z,20.312
2023-05-09T13:21:57.279Z,20.437
2023-05-09T13:24:57.653Z,20.312
2023-05-09T13:27:57.512Z,20.312
2023-05-09T13:30:57.948Z,20.937
2023-05-09T13:33:57.752Z,21.312
2023-05-09T13:36:57.137Z,20.875
2023-05-09T13:39:57.520Z,21.187
2023-05-09T13:42:57.524Z,20.0
2023-05-09T13:45:57.861Z,20.5
2023-05-09T13:48:57.798Z,20.437
2023-05-09T13:51:57.001Z,20.437
2023-05-09T13:54:57.709Z,20.062
2023-05-09T13:57:57.672Z,20.125
2023-05-09T14:00:57.222Z,20.375
2023-05-09T14:03:57.251Z,20.312
2023-05-09T14:06:57.519Z,19.937
2023-05-09T14:10:10.548Z,20.125
2023-05-09T14:12:57.896Z,20.437
2023-05-09T14:15:57.129Z,20.812
2023-05-09T14:18:57.641Z,20.562
2023-05-09T14:21:57.025Z,19.812
2023-05-09T14:25:04.147Z,20.187
2023-05-09T14:27:57.262Z,20.312
2023-05-09T14:30:57.469Z,20.0
2023-05-09T14:33:57.556Z,20.062
2023-05-09T14:36:57.338Z,20.062
2023-05-09T14:39:56.850Z,20.0
2023-05-09T14:42:57.342Z,20.25
2023-05-09T14:45:57.685Z,20.25
2023-05-09T14:48:57.828Z,19.687
2023-05-09T14:51:57.168Z,19.875
2023-05-09T14:54:57.156Z,19.875
2023-05-09T14:57:57.683Z,19.875
2023-05-09T15:00:57.453Z,19.937
2023-05-09T15:03:57.426Z,19.937
2023-05-09T15:06:57.628Z,19.5
2023-05-09T15:09:57.467Z,19.625
2023-05-09T15:12:57.332Z,19.562
2023-05-09T15:15:57.587Z,19.562
2023-05-09T15:18:57.582Z,19.562
2023-05-09T15:21:57.856Z,19.5
2023-05-09T15:24:57.476Z,19.437
2023-05-09T15:27:57.442Z,19.812
2023-05-09T15:30:57.949Z,19.875
2023-05-09T15:33:57.364Z,19.625
2023-05-09T15:36:56.828Z,19.437
2023-05-09T15:39:57.496Z,19.562
2023-05-09T15:42:57.962Z,19.437
2023-05-09T15:45:57.718Z,19.437
2023-05-09T15:48:57.360Z,19.25
2023-05-09T15:51:57.277Z,19.312
2023-05-09T15:54:57.308Z,19.375
2023-05-09T15:57:57.565Z,19.375
2023-05-09T16:00:58.690Z,19.312
2023-05-09T16:03:57.506Z,19.375
2023-05-09T16:06:57.688Z,19.375
2023-05-09T16:09:58.250Z,19.062
2023-05-09T16:12:57.928Z,19.062
2023-05-09T16:15:58.011Z,19.0
2023-05-09T16:18:57.637Z,18.875
2023-05-09T16:21:57.842Z,18.937
2023-05-09T16:24:58.211Z,19.0
2023-05-09T16:27:57.979Z,19.0
2023-05-09T16:30:57.770Z,18.875
2023-05-09T16:33:57.823Z,18.875
2023-05-09T16:36:57.481Z,18.875
2023-05-09T16:39:57.676Z,18.875
2023-05-09T16:42:58.220Z,18.75
2023-05-09T16:45:57.602Z,18.75
2023-05-09T16:48:58.036Z,18.812
2023-05-09T16:51:57.934Z,18.687
2023-05-09T16:54:58.156Z,18.625
2023-05-09T16:57:57.878Z,18.437
2023-05-09T17:00:58.873Z,18.562
2023-05-09T17:03:57.757Z,18.437
2023-05-09T17:06:57.469Z,18.437
2023-05-09T17:09:57.963Z,18.375
2023-05-09T17:12:57.594Z,18.312
2023-05-09T17:15:57.420Z,18.187
2023-05-09T17:18:57.084Z,18.125
2023-05-09T17:21:57.772Z,18.125
2023-05-09T17:24:58.128Z,18.062
2023-05-09T17:27:57.475Z,18.0
2023-05-09T17:30:58.418Z,17.875
2023-05-09T17:33:58.552Z,17.75
2023-05-09T17:36:57.677Z,17.687
2023-05-09T17:39:57.585Z,17.625
2023-05-09T17:42:57.717Z,17.562
2023-05-09T17:45:57.689Z,17.562
2023-05-09T17:48:57.553Z,17.5
2023-05-09T17:51:58.383Z,17.437
2023-05-09T17:54:57.497Z,17.375
2023-05-09T17:57:57.208Z,17.375
2023-05-09T18:00:58.005Z,17.312
2023-05-09T18:03:58.119Z,17.25
2023-05-09T18:06:58.054Z,17.25
2023-05-09T18:09:58.005Z,17.25
2023-05-09T18:12:57.894Z,17.125
2023-05-09T18:15:57.463Z,17.125
2023-05-09T18:18:57.064Z,17.062
2023-05-09T18:21:57.889Z,17.0
2023-05-09T18:24:57.310Z,16.937
2023-05-09T18:27:57.848Z,16.937
2023-05-09T18:30:58.254Z,16.875
2023-05-09T18:33:57.748Z,16.875
2023-05-09T18:36:57.610Z,16.812
2023-05-09T18:39:57.491Z,16.812
2023-05-09T18:42:57.103Z,16.812
2023-05-09T18:45:57.113Z,16.875
2023-05-09T18:48:56.905Z,16.875
2023-05-09T18:51:57.432Z,16.875
2023-05-09T18:54:57.321Z,16.812
2023-05-09T18:57:56.984Z,16.812
2023-05-09T19:01:26.229Z,16.187
2023-05-09T19:03:57.423Z,15.812
2023-05-09T19:06:57.965Z,15.625
2023-05-09T19:09:57.649Z,15.187
2023-05-09T19:12:57.325Z,14.812
2023-05-09T19:15:57.239Z,14.437
2023-05-09T19:18:57.052Z,14.25
2023-05-09T19:21:57.086Z,14.0
2023-05-09T19:24:57.547Z,13.812
2023-05-09T19:27:56.653Z,13.562
2023-05-09T19:30:57.341Z,13.437
2023-05-09T19:33:57.839Z,13.25
2023-05-09T19:36:58.099Z,13.062
2023-05-09T19:39:57.997Z,13.0
2023-05-09T19:42:57.458Z,12.937
2023-05-09T19:45:57.847Z,12.875
2023-05-09T19:48:57.228Z,12.812
2023-05-09T19:51:57.196Z,12.75
2023-05-09T19:54:57.484Z,12.687
2023-05-09T19:57:57.181Z,12.687
2023-05-09T20:00:58.078Z,12.562
2023-05-09T20:03:57.304Z,12.562
2023-05-09T20:06:56.938Z,12.5
2023-05-09T20:09:57.826Z,12.625
2023-05-09T20:12:57.601Z,12.562
2023-05-09T20:15:57.276Z,12.5
2023-05-09T20:18:57.289Z,12.5
2023-05-09T20:21:57.474Z,12.437
2023-05-09T20:24:58.071Z,12.437
2023-05-09T20:27:58.134Z,12.437
2023-05-09T20:30:57.371Z,12.437
2023-05-09T20:33:57.948Z,12.25
2023-05-09T20:36:57.024Z,12.25
2023-05-09T20:39:57.573Z,12.437
2023-05-09T20:42:57.186Z,12.437
2023-05-09T20:45:57.015Z,12.5
2023-05-09T20:48:57.615Z,12.437
2023-05-09T20:51:57.117Z,12.25
2023-05-09T20:54:57.224Z,12.312
2023-05-09T20:57:57.130Z,12.187
2023-05-09T21:00:58.124Z,12.437
2023-05-09T21:03:57.181Z,12.437
2023-05-09T21:06:58.040Z,12.25
2023-05-09T21:09:58.441Z,12.187
2023-05-09T21:12:58.036Z,12.187
2023-05-09T21:15:57.229Z,12.062
2023-05-09T21:18:57.036Z,12.062
2023-05-09T21:21:57.644Z,12.062
2023-05-09T21:24:57.591Z,12.062
2023-05-09T21:27:57.441Z,12.062
2023-05-09T21:30:58.213Z,12.125
2023-05-09T21:33:57.635Z,12.125
2023-05-09T21:36:57.735Z,12.125
2023-05-09T21:39:57.937Z,12.125
2023-05-09T21:42:57.118Z,12.125
2023-05-09T21:45:57.555Z,12.125
2023-05-09T21:48:57.781Z,12.125
2023-05-09T21:51:57.322Z,12.187
2023-05-09T21:54:57.543Z,12.125
2023-05-09T21:57:57.621Z,12.125
2023-05-09T22:00:57.935Z,12.125
2023-05-09T22:03:57.298Z,12.125
2023-05-09T22:06:57.443Z,12.187
2023-05-09T22:09:57.455Z,12.187
2023-05-09T22:12:56.981Z,12.187
2023-05-09T22:15:57.700Z,12.25
2023-05-09T22:18:57.631Z,12.312
2023-05-09T22:21:56.739Z,12.312
2023-05-09T22:24:57.230Z,12.187
2023-05-09T22:27:57.292Z,12.187
2023-05-09T22:30:57.013Z,12.312
2023-05-09T22:33:57.316Z,12.375
2023-05-09T22:36:56.784Z,12.375
2023-05-09T22:39:57.426Z,12.312
2023-05-09T22:42:56.617Z,12.312
2023-05-09T22:45:57.221Z,12.312
2023-05-09T22:48:56.955Z,12.312
2023-05-09T22:51:57.587Z,12.312
2023-05-09T22:54:56.932Z,12.437
2023-05-09T22:57:57.320Z,12.437
2023-05-09T23:00:57.765Z,12.437
2023-05-09T23:03:57.378Z,12.375
2023-05-09T23:06:57.824Z,12.312
2023-05-09T23:09:57.322Z,12.312
2023-05-09T23:12:57.870Z,12.125
2023-05-09T23:15:57.104Z,12.125
2023-05-09T23:18:57.589Z,12.25
2023-05-09T23:21:57.778Z,12.25
2023-05-09T23:24:57.213Z,12.25
2023-05-09T23:27:56.951Z,12.062
2023-05-09T23:31:13.832Z,12.062
2023-05-09T23:33:57.620Z,11.937
2023-05-09T23:36:56.969Z,12.125
2023-05-09T23:39:57.488Z,11.937
2023-05-09T23:42:57.656Z,11.937
2023-05-09T23:45:56.965Z,11.812
2023-05-09T23:48:57.121Z,11.812
2023-05-09T23:51:57.541Z,12.0
2023-05-09T23:54:57.332Z,12.062
2023-05-09T23:57:56.485Z,12.0
